createdAt,value
2022-10-07T00:02:41.418Z,88.4
2022-10-07T00:29:59.916Z,87.4
2022-10-07T00:43:11.539Z,89.2
2022-10-07T00:49:41.479Z,89.1
2022-10-07T01:08:59.538Z,90.2
2022-10-07T01:15:34.904Z,88
2022-10-07T01:22:08.592Z,89.4
2022-10-07T01:29:12.924Z,88.4
2022-10-07T01:48:39.887Z,89.6
2022-10-07T02:14:20.663Z,89.6
2022-10-07T02:27:04.525Z,88.1
2022-10-07T02:33:34.956Z,88.8
2022-10-07T02:53:50.911Z,88.3
2022-10-07T03:00:14.721Z,89.7
2022-10-07T03:06:22.784Z,88.7
2022-10-07T03:33:26.108Z,90.3
2022-10-07T03:39:54.034Z,90.5
2022-10-07T03:46:23.489Z,92
2022-10-07T03:52:39.768Z,92.2
2022-10-07T03:58:39.213Z,93.9
2022-10-07T04:04:32.159Z,92.5
2022-10-07T04:10:25.265Z,91.4
2022-10-07T04:16:20.152Z,92.2
2022-10-07T04:22:12.596Z,91.4
2022-10-07T04:28:45.385Z,90.9
2022-10-07T04:34:58.570Z,91.1
2022-10-07T04:40:57.396Z,91.1
2022-10-07T04:47:04.222Z,92.9
2022-10-07T04:52:57.892Z,93.2
2022-10-07T04:58:53.447Z,95.2
2022-10-07T05:04:52.873Z,96.3
2022-10-07T05:10:51.262Z,96.4
2022-10-07T05:16:52.935Z,95.6
2022-10-07T05:22:48.277Z,96
2022-10-07T05:28:42.351Z,100
2022-10-07T05:34:37.770Z,100
2022-10-07T05:46:45.491Z,100
2022-10-07T05:52:38.466Z,100
2022-10-07T05:58:34.410Z,100
2022-10-07T06:04:28.887Z,100
2022-10-07T06:10:21.886Z,100
2022-10-07T06:16:27.942Z,100
2022-10-07T06:22:21.604Z,100
2022-10-07T06:28:15.501Z,100
2022-10-07T06:34:09.580Z,100
2022-10-07T06:40:01.646Z,100
2022-10-07T06:45:53.610Z,100
2022-10-07T06:51:44.976Z,100
2022-10-07T06:57:47.142Z,100
2022-10-07T07:03:36.917Z,100
2022-10-07T07:09:30.408Z,100
2022-10-07T07:15:21.851Z,100
2022-10-07T07:21:12.808Z,100
2022-10-07T07:27:08.290Z,100
2022-10-07T07:32:59.375Z,100
2022-10-07T07:38:52.176Z,100
2022-10-07T07:44:43.033Z,100
2022-10-07T07:50:34.791Z,100
2022-10-07T07:56:27.479Z,100
2022-10-07T08:02:19.869Z,100
2022-10-07T08:08:10.965Z,100
2022-10-07T08:14:02.726Z,100
2022-10-07T08:19:59.382Z,100
2022-10-07T08:25:52.824Z,100
2022-10-07T08:31:44.779Z,100
2022-10-07T08:37:36.185Z,100
2022-10-07T08:43:30.121Z,100
2022-10-07T08:49:23.647Z,100
2022-10-07T08:55:16.421Z,100
2022-10-07T09:01:07.437Z,99.7
2022-10-07T09:07:00.908Z,97.1
2022-10-07T09:12:51.781Z,95.2
2022-10-07T09:18:42.448Z,93.3
2022-10-07T09:24:34.588Z,92.5
2022-10-07T09:30:25.518Z,92
2022-10-07T09:36:16.789Z,91.7
2022-10-07T09:42:10.538Z,92.4
2022-10-07T09:48:02.064Z,88.4
2022-10-07T09:53:54.023Z,87.1
2022-10-07T09:59:45.875Z,84.9
2022-10-07T10:05:38.188Z,85.2
2022-10-07T10:11:29.977Z,85.2
2022-10-07T10:17:20.839Z,81.6
2022-10-07T10:23:13.304Z,83.6
2022-10-07T10:29:04.211Z,80
2022-10-07T10:34:53.295Z,76.6
2022-10-07T10:40:42.865Z,77.2
2022-10-07T10:46:32.596Z,76
2022-10-07T10:52:23.078Z,71.4
2022-10-07T10:58:13.232Z,72.1
2022-10-07T11:04:03.097Z,69.2
2022-10-07T11:09:53.497Z,68.8
2022-10-07T11:15:44.746Z,69.7
2022-10-07T11:21:34.824Z,67.8
2022-10-07T11:27:26.117Z,65.2
2022-10-07T11:33:16.778Z,61.7
2022-10-07T11:39:07.513Z,61.6
2022-10-07T11:44:57.618Z,61.7
2022-10-07T11:50:48.030Z,62.6
2022-10-07T11:56:38.927Z,59.6
2022-10-07T12:02:29.627Z,57.4
2022-10-07T12:08:21.455Z,65.2
2022-10-07T12:14:13.297Z,66.9
2022-10-07T12:20:05.129Z,66.7
2022-10-07T12:25:58.755Z,65.4
2022-10-07T12:31:50.326Z,65.9
2022-10-07T12:37:40.942Z,67
2022-10-07T12:43:32.784Z,66.5
2022-10-07T12:49:23.174Z,66
2022-10-07T12:55:15.267Z,65.2
2022-10-07T13:01:05.605Z,65.8
2022-10-07T13:06:57.357Z,65.3
2022-10-07T13:12:57.821Z,63.3
2022-10-07T13:18:54.053Z,62.9
2022-10-07T13:24:49.607Z,64.8
2022-10-07T13:30:43.557Z,63.1
2022-10-07T13:36:37.392Z,63.3
2022-10-07T13:42:28.437Z,63.9
2022-10-07T13:48:22.027Z,61.8
2022-10-07T13:54:14.196Z,63.2
2022-10-07T14:00:04.923Z,62.2
2022-10-07T14:05:56.883Z,63.9
2022-10-07T14:11:48.430Z,63.4
2022-10-07T14:17:39.648Z,63.4
2022-10-07T14:23:30.741Z,63.7
2022-10-07T14:29:21.661Z,65.8
2022-10-07T14:35:11.568Z,65.1
2022-10-07T14:41:01.773Z,65.9
2022-10-07T14:46:52.602Z,64.6
2022-10-07T14:52:46.705Z,64.3
2022-10-07T14:58:38.675Z,63.3
2022-10-07T15:04:30.027Z,64
2022-10-07T15:10:22.848Z,63.4
2022-10-07T15:16:15.814Z,63.8
2022-10-07T15:22:08.257Z,63.3
2022-10-07T15:27:58.380Z,63.3
2022-10-07T15:33:48.717Z,63.7
2022-10-07T15:39:43.504Z,63.7
2022-10-07T15:45:35.343Z,61.4
2022-10-07T15:51:31.048Z,62.7
2022-10-07T15:57:24.227Z,61.8
2022-10-07T16:03:15.490Z,61.2
2022-10-07T16:09:08.340Z,59.9
2022-10-07T16:15:01.200Z,61.5
2022-10-07T16:20:52.293Z,62.6
2022-10-07T16:26:43.141Z,62.3
2022-10-07T16:32:34.308Z,62.6
2022-10-07T16:38:26.553Z,62.1
2022-10-07T16:44:18.997Z,63.6
2022-10-07T16:50:13.468Z,64.9
2022-10-07T16:56:03.695Z,66.5
2022-10-07T17:01:57.347Z,68.1
2022-10-07T17:07:47.569Z,68.6
2022-10-07T17:13:41.284Z,67.8
2022-10-07T17:19:31.613Z,66.8
2022-10-07T17:25:22.025Z,66.8
2022-10-07T17:31:12.208Z,66.7
2022-10-07T17:37:02.434Z,66.5
2022-10-07T17:42:52.737Z,67.8
2022-10-07T17:48:42.428Z,69.9
2022-10-07T17:54:33.633Z,69.7
2022-10-07T18:00:24.574Z,70.8
2022-10-07T18:06:17.432Z,70.7
2022-10-07T18:12:07.725Z,72.8
2022-10-07T18:17:59.055Z,73.6
2022-10-07T18:23:49.819Z,75.2
2022-10-07T18:29:44.197Z,75.9
2022-10-07T18:35:37.862Z,77.8
2022-10-07T18:41:29.717Z,79
2022-10-07T18:47:21.514Z,78.1
2022-10-07T18:53:10.263Z,77.1
2022-10-07T18:58:59.992Z,76.9
2022-10-07T19:04:49.273Z,79.3
2022-10-07T19:10:40.176Z,81.1
2022-10-07T19:16:28.676Z,79.2
2022-10-07T19:22:19.876Z,78.8
2022-10-07T19:28:11.748Z,78.3
2022-10-07T19:34:01.968Z,81
2022-10-07T19:39:52.005Z,82.6
2022-10-07T19:45:40.677Z,84.5
2022-10-07T19:51:32.338Z,85.4
2022-10-07T19:57:24.028Z,84.8
2022-10-07T20:03:13.440Z,85.6
2022-10-07T20:09:02.672Z,84.9
2022-10-07T20:14:54.279Z,85.1
2022-10-07T20:20:44.002Z,85.8
2022-10-07T20:26:36.966Z,85.7
2022-10-07T20:32:29.314Z,86.1
2022-10-07T20:38:20.219Z,87.3
2022-10-07T20:44:09.372Z,88.8
2022-10-07T20:50:00.793Z,89.4
2022-10-07T20:55:51.878Z,89.4
2022-10-07T21:01:41.514Z,87.1
2022-10-07T21:07:32.936Z,88.8
2022-10-07T21:13:22.925Z,89.3
2022-10-07T21:19:12.215Z,90.9
2022-10-07T21:25:02.772Z,91.3
2022-10-07T21:30:52.949Z,90.1
2022-10-07T21:36:43.117Z,90
2022-10-07T21:42:39.933Z,90.1
2022-10-07T21:48:31.892Z,90
2022-10-07T21:54:23.138Z,90.2
2022-10-07T22:00:15.518Z,89.5
2022-10-07T22:06:13.840Z,89.9
2022-10-07T22:12:10.321Z,90.8
2022-10-07T22:18:08.517Z,90.9
2022-10-07T22:24:02.134Z,88.9
2022-10-07T22:29:57.260Z,90.1
2022-10-07T22:36:02.209Z,90.8
2022-10-07T22:41:55.749Z,90.2
2022-10-07T22:47:51.084Z,90.1
2022-10-07T22:53:42.252Z,91.5
2022-10-07T22:59:40.782Z,91.5
2022-10-07T23:05:36.828Z,90.9
2022-10-07T23:11:36.424Z,90.9
2022-10-07T23:17:28.014Z,90.6
2022-10-07T23:23:28.091Z,90.6
2022-10-07T23:29:29.509Z,91.7
2022-10-07T23:35:33.124Z,92.5
2022-10-07T23:41:29.242Z,93.6
2022-10-07T23:47:31.020Z,93.3
2022-10-07T23:53:50.781Z,92.1
